createdAt,value
2023-04-26T00:02:00.606Z,99123.00
2023-04-26T00:04:29.210Z,99125.75
2023-04-26T00:06:57.336Z,99128.12
2023-04-26T00:09:24.813Z,99130.78
2023-04-26T00:11:52.427Z,99140.72
2023-04-26T00:14:19.785Z,99144.53
2023-04-26T00:16:47.452Z,99135.19
2023-04-26T00:19:16.020Z,99147.72
2023-04-26T00:21:43.385Z,99146.44
2023-04-26T00:24:10.768Z,99141.38
2023-04-26T00:26:38.385Z,99148.88
2023-04-26T00:29:06.017Z,99148.37
2023-04-26T00:31:33.548Z,99150.69
2023-04-26T00:34:01.269Z,99151.50
2023-04-26T00:36:28.621Z,99154.72
2023-04-26T00:38:55.982Z,99160.09
2023-04-26T00:41:24.264Z,99163.22
2023-04-26T00:43:51.626Z,99171.25
2023-04-26T00:46:19.126Z,99177.47
2023-04-26T00:48:47.101Z,99172.41
2023-04-26T00:51:14.460Z,99180.53
2023-04-26T00:53:41.905Z,99177.19
2023-04-26T00:56:09.640Z,99185.47
2023-04-26T00:58:37.506Z,99183.75
2023-04-26T01:01:04.899Z,99176.69
2023-04-26T01:03:32.818Z,99186.41
2023-04-26T01:06:01.297Z,99183.28
2023-04-26T01:08:28.660Z,99174.53
2023-04-26T01:10:58.686Z,99191.63
2023-04-26T01:13:26.788Z,99186.03
2023-04-26T01:15:54.182Z,99187.97
2023-04-26T01:18:21.800Z,99183.03
2023-04-26T01:20:52.959Z,99185.97
2023-04-26T01:23:20.336Z,99197.47
2023-04-26T01:25:48.247Z,99186.66
2023-04-26T01:28:15.627Z,99195.03
2023-04-26T01:30:43.310Z,99192.78
2023-04-26T01:33:11.468Z,99210.84
2023-04-26T01:35:38.827Z,99207.19
2023-04-26T01:38:06.243Z,99204.81
2023-04-26T01:40:33.847Z,99213.09
2023-04-26T01:43:03.169Z,99214.72
2023-04-26T01:45:31.054Z,99208.44
2023-04-26T01:48:13.424Z,99214.94
2023-04-26T01:50:41.003Z,99227.78
2023-04-26T01:53:08.356Z,99226.63
2023-04-26T01:55:36.099Z,99224.53
2023-04-26T01:58:03.691Z,99224.09
2023-04-26T02:00:31.057Z,99225.50
2023-04-26T02:02:58.743Z,99233.09
2023-04-26T02:05:26.293Z,99232.53
2023-04-26T02:07:53.720Z,99225.00
2023-04-26T02:10:21.442Z,99231.84
2023-04-26T02:12:48.820Z,99236.97
2023-04-26T02:15:16.274Z,99236.44
2023-04-26T02:17:43.994Z,99233.88
2023-04-26T02:20:11.796Z,99230.75
2023-04-26T02:22:39.164Z,99226.13
2023-04-26T02:25:07.400Z,99223.59
2023-04-26T02:27:35.017Z,99239.41
2023-04-26T02:30:02.399Z,99229.72
2023-04-26T02:32:30.057Z,99241.81
2023-04-26T02:34:57.922Z,99238.66
2023-04-26T02:37:26.764Z,99250.56
2023-04-26T02:39:54.177Z,99241.97
2023-04-26T02:42:22.004Z,99239.75
2023-04-26T02:44:49.380Z,99237.69
2023-04-26T02:47:16.930Z,99236.13
2023-04-26T02:49:44.736Z,99239.75
2023-04-26T02:52:12.060Z,99236.44
2023-04-26T02:54:39.600Z,99249.66
2023-04-26T02:57:08.269Z,99248.25
2023-04-26T02:59:35.659Z,99259.41
2023-04-26T03:02:03.031Z,99266.06
2023-04-26T03:04:33.944Z,99257.09
2023-04-26T03:07:01.935Z,99265.62
2023-04-26T03:09:29.329Z,99275.47
2023-04-26T03:11:57.078Z,99276.22
2023-04-26T03:14:24.516Z,99267.28
2023-04-26T03:16:52.130Z,99287.25
2023-04-26T03:19:20.006Z,99287.97
2023-04-26T03:21:47.579Z,99285.84
2023-04-26T03:24:14.979Z,99300.06
2023-04-26T03:26:42.628Z,99291.13
2023-04-26T03:29:10.180Z,99302.41
2023-04-26T03:31:37.725Z,99306.66
2023-04-26T03:34:05.508Z,99300.09
2023-04-26T03:36:32.894Z,99295.56
2023-04-26T03:39:00.260Z,99297.41
2023-04-26T03:41:27.890Z,99305.97
2023-04-26T03:43:55.764Z,99308.25
2023-04-26T03:46:24.184Z,99312.88
2023-04-26T03:48:52.243Z,99314.34
2023-04-26T03:51:19.917Z,99306.34
2023-04-26T03:53:48.744Z,99302.13
2023-04-26T03:56:17.041Z,99306.41
2023-04-26T03:58:44.494Z,99305.72
2023-04-26T04:01:11.913Z,99305.56
2023-04-26T04:03:41.289Z,99317.88
2023-04-26T04:06:09.564Z,99306.09
2023-04-26T04:08:36.950Z,99334.19
2023-04-26T04:11:04.636Z,99327.75
2023-04-26T04:13:32.695Z,99315.25
2023-04-26T04:16:00.167Z,99325.22
2023-04-26T04:18:27.833Z,99334.84
2023-04-26T04:20:55.222Z,99348.13
2023-04-26T04:23:22.845Z,99359.97
2023-04-26T04:25:51.616Z,99359.38
2023-04-26T04:28:20.434Z,99359.38
2023-04-26T04:30:48.129Z,99371.88
2023-04-26T04:33:17.666Z,99372.22
2023-04-26T04:35:45.427Z,99386.41
2023-04-26T04:38:13.216Z,99393.47
2023-04-26T04:40:41.287Z,99381.31
2023-04-26T04:43:09.041Z,99379.56
2023-04-26T04:45:37.345Z,99372.75
2023-04-26T04:48:05.538Z,99388.00
2023-04-26T04:50:33.063Z,99397.88
2023-04-26T04:53:00.590Z,99397.03
2023-04-26T04:55:28.689Z,99404.72
2023-04-26T04:57:56.437Z,99408.31
2023-04-26T05:00:24.106Z,99410.91
2023-04-26T05:02:52.307Z,99408.94
2023-04-26T05:05:20.521Z,99404.88
2023-04-26T05:07:48.002Z,99415.56
2023-04-26T05:10:16.276Z,99424.22
2023-04-26T05:12:43.679Z,99411.28
2023-04-26T05:15:11.164Z,99419.00
2023-04-26T05:17:38.872Z,99416.88
2023-04-26T05:20:08.045Z,99422.94
2023-04-26T05:22:36.908Z,99407.31
2023-04-26T05:25:05.535Z,99418.41
2023-04-26T05:27:33.121Z,99417.84
2023-04-26T05:30:05.906Z,99423.75
2023-04-26T05:32:33.815Z,99420.22
2023-04-26T05:35:01.824Z,99415.56
2023-04-26T05:37:30.724Z,99420.53
2023-04-26T05:39:58.555Z,99425.44
2023-04-26T05:42:27.468Z,99431.25
2023-04-26T05:44:59.031Z,99430.25
2023-04-26T05:47:27.821Z,99425.31
2023-04-26T05:49:55.146Z,99427.94
2023-04-26T05:52:22.492Z,99427.59
2023-04-26T05:54:50.459Z,99422.75
2023-04-26T05:57:19.039Z,99422.44
2023-04-26T05:59:46.747Z,99422.63
2023-04-26T06:02:14.588Z,99422.41
2023-04-26T06:04:42.446Z,99423.56
2023-04-26T06:07:10.470Z,99428.44
2023-04-26T06:09:37.857Z,99435.75
2023-04-26T06:12:05.874Z,99433.56
2023-04-26T06:14:33.927Z,99437.72
2023-04-26T06:17:01.698Z,99444.91
2023-04-26T06:19:29.569Z,99433.59
2023-04-26T06:21:57.316Z,99433.78
2023-04-26T06:24:26.075Z,99441.50
2023-04-26T06:26:53.934Z,99431.22
2023-04-26T06:29:21.571Z,99423.22
2023-04-26T06:31:49.030Z,99426.91
2023-04-26T06:34:18.267Z,99445.53
2023-04-26T06:36:46.241Z,99431.66
2023-04-26T06:39:13.829Z,99417.03
2023-04-26T06:41:43.452Z,99448.31
2023-04-26T06:44:11.415Z,99431.47
2023-04-26T06:46:42.402Z,99425.50
2023-04-26T06:49:10.528Z,99435.47
2023-04-26T06:51:37.908Z,99435.59
2023-04-26T06:54:05.545Z,99421.63
2023-04-26T06:56:33.057Z,99423.22
2023-04-26T06:59:04.431Z,99430.03
2023-04-26T07:01:35.488Z,99430.97
2023-04-26T07:04:03.835Z,99433.06
2023-04-26T07:06:31.619Z,99409.91
2023-04-26T07:09:00.724Z,99433.47
2023-04-26T07:11:28.987Z,99422.59
2023-04-26T07:13:57.101Z,99427.06
2023-04-26T07:16:24.662Z,99428.25
2023-04-26T07:18:52.954Z,99426.62
2023-04-26T07:21:20.594Z,99422.03
2023-04-26T07:23:47.955Z,99429.16
2023-04-26T07:26:15.365Z,99440.69
2023-04-26T07:28:43.094Z,99449.06
2023-04-26T07:31:11.066Z,99460.28
2023-04-26T07:33:38.894Z,99438.13
2023-04-26T07:36:06.756Z,99450.03
2023-04-26T07:38:34.087Z,99462.72
2023-04-26T07:41:01.475Z,99456.34
2023-04-26T07:43:30.234Z,99447.06
2023-04-26T07:46:03.480Z,99441.22
2023-04-26T07:48:31.197Z,99453.31
2023-04-26T07:51:06.680Z,99451.69
2023-04-26T07:53:34.351Z,99444.16
2023-04-26T07:56:01.851Z,99474.56
2023-04-26T07:58:29.222Z,99468.44
2023-04-26T08:00:56.908Z,99463.09
2023-04-26T08:03:24.779Z,99467.53
2023-04-26T08:05:53.996Z,99484.22
2023-04-26T08:08:22.394Z,99469.47
2023-04-26T08:10:50.018Z,99465.81
2023-04-26T08:13:17.396Z,99442.56
2023-04-26T08:15:44.758Z,99475.94
2023-04-26T08:18:12.458Z,99461.34
2023-04-26T08:20:39.852Z,99479.75
2023-04-26T08:23:07.218Z,99463.66
2023-04-26T08:25:34.989Z,99477.09
2023-04-26T08:28:02.622Z,99490.37
2023-04-26T08:30:30.170Z,99469.78
2023-04-26T08:32:57.857Z,99493.19
2023-04-26T08:35:25.553Z,99512.38
2023-04-26T08:37:53.478Z,99498.37
2023-04-26T08:40:24.783Z,99490.00
2023-04-26T08:42:53.531Z,99501.78
2023-04-26T08:45:21.454Z,99487.88
2023-04-26T08:47:53.650Z,99515.78
2023-04-26T08:50:22.413Z,99486.19
2023-04-26T08:52:51.368Z,99504.97
2023-04-26T08:55:20.283Z,99509.12
2023-04-26T08:57:48.774Z,99516.34
2023-04-26T09:00:16.901Z,99509.19
2023-04-26T09:02:52.039Z,99515.56
2023-04-26T09:05:27.184Z,99519.19
2023-04-26T09:07:58.062Z,99488.31
2023-04-26T09:10:26.379Z,99518.53
2023-04-26T09:12:53.920Z,99524.78
2023-04-26T09:15:22.767Z,99516.44
2023-04-26T09:17:51.764Z,99500.00
2023-04-26T09:20:22.838Z,99475.84
2023-04-26T09:23:03.597Z,99491.59
2023-04-26T09:25:33.723Z,99486.12
2023-04-26T09:28:01.925Z,99484.91
2023-04-26T09:30:29.381Z,99479.69
2023-04-26T09:33:06.980Z,99510.38
2023-04-26T09:35:41.833Z,99526.59
2023-04-26T09:38:16.607Z,99502.75
2023-04-26T09:40:50.990Z,99517.00
2023-04-26T09:43:19.779Z,99485.38
2023-04-26T09:45:49.474Z,99493.44
2023-04-26T09:48:17.866Z,99495.22
2023-04-26T09:50:48.171Z,99511.66
2023-04-26T09:53:37.226Z,99508.06
2023-04-26T09:56:10.723Z,99505.03
2023-04-26T09:58:39.641Z,99512.34
2023-04-26T10:01:10.623Z,99499.19
2023-04-26T10:03:38.779Z,99516.41
2023-04-26T10:06:06.686Z,99527.91
2023-04-26T10:08:34.269Z,99533.44
2023-04-26T10:11:04.213Z,99527.66
2023-04-26T10:13:34.914Z,99501.09
2023-04-26T10:16:02.895Z,99511.84
2023-04-26T10:18:31.475Z,99538.34
2023-04-26T10:21:07.702Z,99527.53
2023-04-26T10:23:35.189Z,99526.00
2023-04-26T10:26:03.346Z,99515.81
2023-04-26T10:28:46.198Z,99517.91
2023-04-26T10:31:13.794Z,99511.31
2023-04-26T10:33:41.297Z,99546.03
2023-04-26T10:36:12.689Z,99527.44
2023-04-26T10:38:59.640Z,99535.06
2023-04-26T10:41:37.071Z,99544.94
2023-04-26T10:44:42.711Z,99524.78
2023-04-26T10:47:33.473Z,99528.69
2023-04-26T10:50:09.194Z,99533.00
2023-04-26T10:52:38.020Z,99524.81
2023-04-26T10:55:06.781Z,99539.06
2023-04-26T10:57:50.606Z,99540.41
2023-04-26T11:00:32.092Z,99521.28
2023-04-26T11:03:03.503Z,99542.69
2023-04-26T11:05:35.858Z,99528.34
2023-04-26T11:08:16.256Z,99534.91
2023-04-26T11:10:49.691Z,99537.13
2023-04-26T11:13:17.226Z,99534.72
2023-04-26T11:15:45.048Z,99533.31
2023-04-26T11:18:12.437Z,99522.16
2023-04-26T11:20:39.776Z,99525.34
2023-04-26T11:23:08.138Z,99514.38
2023-04-26T11:25:35.577Z,99521.16
2023-04-26T11:28:03.332Z,99508.00
2023-04-26T11:30:31.834Z,99539.78
2023-04-26T11:33:00.218Z,99538.66
2023-04-26T11:35:29.544Z,99539.28
2023-04-26T11:38:00.839Z,99534.75
2023-04-26T11:40:29.712Z,99520.00
2023-04-26T11:43:05.961Z,99526.72
2023-04-26T11:45:34.064Z,99517.66
2023-04-26T11:48:02.708Z,99521.81
2023-04-26T11:50:33.645Z,99518.34
2023-04-26T11:53:02.092Z,99533.66
2023-04-26T11:55:32.067Z,99540.41
2023-04-26T11:57:59.984Z,99531.78
2023-04-26T12:00:27.616Z,99531.53
2023-04-26T12:02:57.356Z,99532.06
2023-04-26T12:05:26.210Z,99547.09
2023-04-26T12:07:55.635Z,99547.97
2023-04-26T12:10:28.125Z,99548.12
2023-04-26T12:12:58.557Z,99547.53
2023-04-26T12:15:31.284Z,99543.53
2023-04-26T12:17:58.594Z,99544.66
2023-04-26T12:20:33.602Z,99530.00
2023-04-26T12:23:11.922Z,99521.94
2023-04-26T12:25:39.985Z,99520.28
2023-04-26T12:28:12.649Z,99522.19
2023-04-26T12:30:40.852Z,99516.13
2023-04-26T12:33:16.933Z,99534.63
2023-04-26T12:35:46.299Z,99539.06
2023-04-26T12:38:14.215Z,99570.16
2023-04-26T12:40:51.248Z,99552.56
2023-04-26T12:43:19.899Z,99552.41
2023-04-26T12:45:47.306Z,99563.44
2023-04-26T12:48:15.637Z,99557.34
2023-04-26T12:50:44.238Z,99552.63
2023-04-26T12:53:11.836Z,99535.91
2023-04-26T12:55:39.726Z,99540.66
2023-04-26T12:58:07.360Z,99578.69
2023-04-26T13:00:34.754Z,99566.69
2023-04-26T13:03:02.545Z,99556.06
2023-04-26T13:05:30.623Z,99555.88
2023-04-26T13:07:58.010Z,99563.56
2023-04-26T13:10:25.462Z,99559.03
2023-04-26T13:12:53.943Z,99553.19
2023-04-26T13:15:21.646Z,99572.31
2023-04-26T13:17:49.139Z,99562.84
2023-04-26T13:20:16.804Z,99565.72
2023-04-26T13:22:44.167Z,99571.06
2023-04-26T13:25:13.180Z,99566.81
2023-04-26T13:27:41.136Z,99553.28
2023-04-26T13:30:09.114Z,99565.56
2023-04-26T13:32:36.860Z,99568.16
2023-04-26T13:35:04.766Z,99584.28
2023-04-26T13:37:32.858Z,99577.94
2023-04-26T13:40:00.354Z,99583.03
2023-04-26T13:42:28.195Z,99589.84
2023-04-26T13:44:55.553Z,99577.47
2023-04-26T13:47:23.028Z,99574.56
2023-04-26T13:49:51.146Z,99583.31
2023-04-26T13:52:18.584Z,99594.81
2023-04-26T13:54:45.951Z,99582.13
2023-04-26T13:57:13.543Z,99596.22
2023-04-26T13:59:40.980Z,99586.94
2023-04-26T14:02:08.471Z,99576.78
2023-04-26T14:04:36.613Z,99581.72
2023-04-26T14:07:04.269Z,99590.81
2023-04-26T14:09:31.861Z,99595.50
2023-04-26T14:12:08.039Z,99624.72
2023-04-26T14:14:37.009Z,99603.72
2023-04-26T14:17:04.628Z,99604.09
2023-04-26T14:19:32.024Z,99604.47
2023-04-26T14:21:59.518Z,99608.16
2023-04-26T14:24:27.295Z,99612.63
2023-04-26T14:26:54.705Z,99601.44
2023-04-26T14:29:22.061Z,99609.94
2023-04-26T14:31:50.418Z,99613.69
2023-04-26T14:34:17.830Z,99603.56
2023-04-26T14:36:45.182Z,99617.44
2023-04-26T14:39:12.768Z,99615.91
2023-04-26T14:41:40.829Z,99619.19
2023-04-26T14:44:08.202Z,99633.13
2023-04-26T14:46:35.988Z,99615.47
2023-04-26T14:49:03.416Z,99604.84
2023-04-26T14:51:31.992Z,99628.81
2023-04-26T14:53:59.582Z,99621.25
2023-04-26T14:56:26.925Z,99616.84
2023-04-26T14:58:54.283Z,99620.41
2023-04-26T15:01:21.910Z,99607.41
2023-04-26T15:03:49.435Z,99616.53
2023-04-26T15:06:16.912Z,99607.88
2023-04-26T15:08:44.635Z,99610.13
2023-04-26T15:11:11.954Z,99608.00
2023-04-26T15:13:39.280Z,99610.88
2023-04-26T15:16:08.029Z,99617.25
2023-04-26T15:18:35.665Z,99604.63
2023-04-26T15:21:03.026Z,99622.78
2023-04-26T15:23:30.638Z,99626.31
2023-04-26T15:26:02.221Z,99606.00
2023-04-26T15:28:29.626Z,99625.31
2023-04-26T15:31:04.158Z,99616.16
2023-04-26T15:33:31.730Z,99617.31
2023-04-26T15:35:59.353Z,99621.84
2023-04-26T15:38:26.699Z,99628.34
2023-04-26T15:40:54.076Z,99622.78
2023-04-26T15:43:22.092Z,99624.44
2023-04-26T15:45:49.649Z,99624.31
2023-04-26T15:48:17.511Z,99623.84
2023-04-26T15:50:46.183Z,99629.16
2023-04-26T15:53:13.605Z,99623.78
2023-04-26T15:55:41.566Z,99622.28
2023-04-26T15:58:09.223Z,99639.12
2023-04-26T16:00:36.702Z,99636.28
2023-04-26T16:03:04.540Z,99635.84
2023-04-26T16:05:32.065Z,99623.88
2023-04-26T16:08:03.801Z,99635.03
2023-04-26T16:10:31.433Z,99632.47
2023-04-26T16:12:58.915Z,99646.12
2023-04-26T16:15:26.426Z,99640.03
2023-04-26T16:17:54.041Z,99645.34
2023-04-26T16:20:21.564Z,99652.91
2023-04-26T16:22:49.892Z,99650.75
2023-04-26T16:25:17.602Z,99661.25
2023-04-26T16:27:44.948Z,99652.88
2023-04-26T16:30:12.516Z,99668.00
2023-04-26T16:32:40.229Z,99661.72
2023-04-26T16:35:08.870Z,99650.97
2023-04-26T16:37:39.256Z,99649.84
2023-04-26T16:40:07.890Z,99638.56
2023-04-26T16:42:35.219Z,99638.78
2023-04-26T16:45:02.782Z,99647.84
2023-04-26T16:47:30.978Z,99649.75
2023-04-26T16:49:58.600Z,99652.88
2023-04-26T16:52:25.985Z,99644.84
2023-04-26T16:54:53.571Z,99656.88
2023-04-26T16:57:21.056Z,99658.13
2023-04-26T16:59:48.397Z,99665.37
2023-04-26T17:02:16.458Z,99661.44
2023-04-26T17:04:44.094Z,99668.63
2023-04-26T17:07:12.737Z,99663.63
2023-04-26T17:09:40.405Z,99662.09
2023-04-26T17:12:07.985Z,99661.56
2023-04-26T17:14:35.309Z,99667.38
2023-04-26T17:17:02.947Z,99669.53
2023-04-26T17:19:30.323Z,99674.84
2023-04-26T17:21:57.696Z,99674.44
2023-04-26T17:24:25.440Z,99671.38
2023-04-26T17:26:52.842Z,99666.97
2023-04-26T17:29:20.727Z,99673.19
2023-04-26T17:31:48.385Z,99673.09
2023-04-26T17:34:16.010Z,99684.50
2023-04-26T17:36:45.548Z,99687.75
2023-04-26T17:39:13.182Z,99692.88
2023-04-26T17:41:40.673Z,99694.31
2023-04-26T17:44:07.998Z,99691.50
2023-04-26T17:46:35.758Z,99691.66
2023-04-26T17:49:03.279Z,99705.91
2023-04-26T17:51:30.743Z,99711.31
2023-04-26T17:53:58.374Z,99710.53
2023-04-26T17:56:25.734Z,99706.19
2023-04-26T17:58:53.086Z,99711.84
2023-04-26T18:01:21.246Z,99722.09
2023-04-26T18:03:49.267Z,99721.03
2023-04-26T18:06:19.348Z,99722.72
2023-04-26T18:08:47.122Z,99727.75
2023-04-26T18:11:14.838Z,99732.13
2023-04-26T18:13:42.189Z,99730.28
2023-04-26T18:16:09.584Z,99729.44
2023-04-26T18:18:37.194Z,99738.06
2023-04-26T18:21:04.604Z,99742.34
2023-04-26T18:23:31.962Z,99744.28
2023-04-26T18:25:59.587Z,99750.44
2023-04-26T18:28:26.966Z,99744.69
2023-04-26T18:30:58.020Z,99748.81
2023-04-26T18:33:26.299Z,99761.44
2023-04-26T18:35:53.700Z,99760.16
2023-04-26T18:38:21.078Z,99754.84
2023-04-26T18:40:49.770Z,99771.91
2023-04-26T18:43:17.266Z,99766.09
2023-04-26T18:45:44.749Z,99770.94
2023-04-26T18:48:12.453Z,99780.34
2023-04-26T18:50:39.833Z,99779.00
2023-04-26T18:53:07.167Z,99775.41
2023-04-26T18:55:34.787Z,99780.00
2023-04-26T18:58:02.215Z,99785.22
2023-04-26T19:00:29.564Z,99791.84
2023-04-26T19:02:57.377Z,99793.31
2023-04-26T19:05:25.059Z,99784.53
2023-04-26T19:07:53.346Z,99788.22
2023-04-26T19:10:21.380Z,99787.37
2023-04-26T19:12:48.918Z,99787.97
2023-04-26T19:15:16.679Z,99787.78
2023-04-26T19:17:44.403Z,99790.63
2023-04-26T19:20:13.984Z,99797.53
2023-04-26T19:22:47.490Z,99797.84
2023-04-26T19:25:15.108Z,99800.28
2023-04-26T19:27:42.454Z,99797.84
2023-04-26T19:30:10.092Z,99796.91
2023-04-26T19:32:37.770Z,99799.16
2023-04-26T19:35:06.158Z,99810.56
2023-04-26T19:37:33.582Z,99799.59
2023-04-26T19:40:01.217Z,99816.63
2023-04-26T19:42:28.598Z,99815.22
2023-04-26T19:44:56.210Z,99817.44
2023-04-26T19:47:23.863Z,99816.38
2023-04-26T19:49:53.026Z,99822.06
2023-04-26T19:52:20.432Z,99823.06
2023-04-26T19:54:48.013Z,99826.94
2023-04-26T19:57:15.354Z,99825.59
2023-04-26T19:59:42.705Z,99822.19
2023-04-26T20:02:10.299Z,99829.16
2023-04-26T20:04:37.936Z,99827.94
2023-04-26T20:07:05.524Z,99824.84
2023-04-26T20:09:32.900Z,99825.91
2023-04-26T20:12:00.714Z,99824.53
2023-04-26T20:14:30.182Z,99824.41
2023-04-26T20:17:02.215Z,99825.75
2023-04-26T20:19:30.627Z,99823.81
2023-04-26T20:21:58.002Z,99827.44
2023-04-26T20:24:27.802Z,99825.09
2023-04-26T20:26:56.478Z,99824.97
2023-04-26T20:29:24.120Z,99822.00
2023-04-26T20:31:51.865Z,99821.09
2023-04-26T20:34:19.532Z,99825.78
2023-04-26T20:36:47.411Z,99828.81
2023-04-26T20:39:14.805Z,99837.84
2023-04-26T20:41:42.650Z,99829.53
2023-04-26T20:44:10.291Z,99836.84
2023-04-26T20:46:37.671Z,99841.47
2023-04-26T20:49:06.713Z,99835.81
2023-04-26T20:51:34.308Z,99841.97
2023-04-26T20:54:01.707Z,99843.59
2023-04-26T20:56:29.347Z,99855.38
2023-04-26T20:58:57.659Z,99852.47
2023-04-26T21:01:25.023Z,99845.34
2023-04-26T21:03:52.888Z,99849.97
2023-04-26T21:06:20.340Z,99856.66
2023-04-26T21:08:47.786Z,99863.69
2023-04-26T21:11:15.447Z,99861.03
2023-04-26T21:13:42.847Z,99859.66
2023-04-26T21:16:10.199Z,99865.72
2023-04-26T21:18:37.881Z,99864.66
2023-04-26T21:21:05.309Z,99860.88
2023-04-26T21:23:33.197Z,99868.66
2023-04-26T21:26:00.902Z,99862.34
2023-04-26T21:28:28.278Z,99867.19
2023-04-26T21:31:04.601Z,99865.47
2023-04-26T21:33:32.243Z,99859.38
2023-04-26T21:36:00.458Z,99868.69
2023-04-26T21:38:28.114Z,99868.97
2023-04-26T21:40:55.742Z,99879.87
2023-04-26T21:43:23.144Z,99881.81
2023-04-26T21:45:52.301Z,99880.97
2023-04-26T21:48:19.912Z,99889.66
2023-04-26T21:50:50.551Z,99888.25
2023-04-26T21:53:17.916Z,99889.75
2023-04-26T21:55:50.813Z,99890.94
2023-04-26T21:58:19.085Z,99897.22
2023-04-26T22:00:46.940Z,99900.97
2023-04-26T22:03:14.861Z,99901.16
2023-04-26T22:05:42.348Z,99907.75
2023-04-26T22:08:09.746Z,99900.09
2023-04-26T22:10:38.761Z,99904.66
2023-04-26T22:13:06.297Z,99912.94
2023-04-26T22:15:33.649Z,99913.28
2023-04-26T22:18:01.574Z,99913.62
2023-04-26T22:20:29.960Z,99916.19
2023-04-26T22:22:57.348Z,99919.72
2023-04-26T22:25:25.197Z,99913.94
2023-04-26T22:27:53.410Z,99923.97
2023-04-26T22:30:25.368Z,99920.31
2023-04-26T22:32:55.554Z,99925.78
2023-04-26T22:35:23.742Z,99918.34
2023-04-26T22:37:51.286Z,99931.72
2023-04-26T22:40:18.926Z,99931.69
2023-04-26T22:42:46.493Z,99937.66
2023-04-26T22:45:13.925Z,99945.59
2023-04-26T22:47:41.669Z,99948.63
2023-04-26T22:50:09.414Z,99942.72
2023-04-26T22:52:36.842Z,99937.31
2023-04-26T22:55:04.632Z,99938.69
2023-04-26T22:57:32.040Z,99945.84
2023-04-26T22:59:59.416Z,99948.13
2023-04-26T23:02:27.135Z,99952.72
2023-04-26T23:04:54.739Z,99942.16
2023-04-26T23:07:22.156Z,99951.19
2023-04-26T23:09:49.769Z,99954.47
2023-04-26T23:12:20.190Z,99959.38
2023-04-26T23:14:48.638Z,99957.53
2023-04-26T23:17:16.577Z,99971.25
2023-04-26T23:19:43.949Z,99965.47
2023-04-26T23:22:11.287Z,99965.59
2023-04-26T23:24:38.884Z,99966.12
2023-04-26T23:27:06.230Z,99967.47
2023-04-26T23:29:33.610Z,99974.47
2023-04-26T23:32:01.224Z,99975.78
2023-04-26T23:34:28.598Z,99980.25
2023-04-26T23:36:55.948Z,99987.09
2023-04-26T23:39:23.765Z,99983.59
2023-04-26T23:41:51.149Z,99974.59
2023-04-26T23:44:18.505Z,99986.66
2023-04-26T23:46:46.319Z,99983.03
2023-04-26T23:49:13.871Z,99975.28
2023-04-26T23:51:41.445Z,99984.19
2023-04-26T23:54:09.066Z,99977.09
2023-04-26T23:56:36.572Z,99971.41
2023-04-26T23:59:03.984Z,99969.87
